sensor_id;sensor_type;location;lat;lon;timestamp;temperature;humidity
25208;DHT22;13153;52.316;21.166;2023-02-11T00:00:33;2.90;99.90
25208;DHT22;13153;52.316;21.166;2023-02-11T00:02:59;2.90;99.90
25208;DHT22;13153;52.316;21.166;2023-02-11T00:05:25;2.90;99.90
25208;DHT22;13153;52.316;21.166;2023-02-11T00:07:51;2.90;99.90
25208;DHT22;13153;52.316;21.166;2023-02-11T00:10:17;2.90;99.90
25208;DHT22;13153;52.316;21.166;2023-02-11T00:12:42;2.90;99.90
25208;DHT22;13153;52.316;21.166;2023-02-11T00:15:09;2.90;99.90
25208;DHT22;13153;52.316;21.166;2023-02-11T00:17:35;2.90;99.90
25208;DHT22;13153;52.316;21.166;2023-02-11T00:20:01;2.90;99.90
25208;DHT22;13153;52.316;21.166;2023-02-11T00:22:27;2.90;99.90
25208;DHT22;13153;52.316;21.166;2023-02-11T00:24:53;2.90;99.90
25208;DHT22;13153;52.316;21.166;2023-02-11T00:27:18;2.90;99.90
25208;DHT22;13153;52.316;21.166;2023-02-11T00:29:44;2.90;99.90
25208;DHT22;13153;52.316;21.166;2023-02-11T00:32:10;2.90;99.90
25208;DHT22;13153;52.316;21.166;2023-02-11T00:34:36;2.90;99.90
25208;DHT22;13153;52.316;21.166;2023-02-11T00:37:03;2.90;99.90
25208;DHT22;13153;52.316;21.166;2023-02-11T00:39:30;2.90;99.90
25208;DHT22;13153;52.316;21.166;2023-02-11T00:41:57;2.90;99.90
25208;DHT22;13153;52.316;21.166;2023-02-11T00:44:22;2.90;99.90
25208;DHT22;13153;52.316;21.166;2023-02-11T00:46:48;2.90;99.90
25208;DHT22;13153;52.316;21.166;2023-02-11T00:49:14;2.90;99.90
25208;DHT22;13153;52.316;21.166;2023-02-11T00:51:40;2.90;99.90
25208;DHT22;13153;52.316;21.166;2023-02-11T00:54:06;2.90;99.90
25208;DHT22;13153;52.316;21.166;2023-02-11T00:56:33;3.00;99.90
25208;DHT22;13153;52.316;21.166;2023-02-11T00:58:59;3.00;99.90
25208;DHT22;13153;52.316;21.166;2023-02-11T01:01:25;3.00;99.90
25208;DHT22;13153;52.316;21.166;2023-02-11T01:03:50;3.00;99.90
25208;DHT22;13153;52.316;21.166;2023-02-11T01:06:17;3.00;99.90
25208;DHT22;13153;52.316;21.166;2023-02-11T01:08:43;3.00;99.90
25208;DHT22;13153;52.316;21.166;2023-02-11T01:11:15;3.00;99.90
25208;DHT22;13153;52.316;21.166;2023-02-11T01:13:45;3.10;99.90
25208;DHT22;13153;52.316;21.166;2023-02-11T01:16:12;3.00;99.90
25208;DHT22;13153;52.316;21.166;2023-02-11T01:18:39;3.10;99.90
25208;DHT22;13153;52.316;21.166;2023-02-11T01:21:06;3.10;99.90
25208;DHT22;13153;52.316;21.166;2023-02-11T01:23:32;3.10;99.90
25208;DHT22;13153;52.316;21.166;2023-02-11T01:25:58;3.10;99.90
25208;DHT22;13153;52.316;21.166;2023-02-11T01:28:27;3.10;99.90
25208;DHT22;13153;52.316;21.166;2023-02-11T01:30:54;3.10;99.90
25208;DHT22;13153;52.316;21.166;2023-02-11T01:33:21;3.20;99.90
25208;DHT22;13153;52.316;21.166;2023-02-11T01:35:48;3.20;99.90
25208;DHT22;13153;52.316;21.166;2023-02-11T01:38:19;3.20;99.90
25208;DHT22;13153;52.316;21.166;2023-02-11T01:40:56;3.20;99.90
25208;DHT22;13153;52.316;21.166;2023-02-11T01:43:25;3.20;99.90
25208;DHT22;13153;52.316;21.166;2023-02-11T01:46:03;3.20;99.90
25208;DHT22;13153;52.316;21.166;2023-02-11T01:51:38;3.20;99.90
25208;DHT22;13153;52.316;21.166;2023-02-11T01:54:10;3.20;99.90
25208;DHT22;13153;52.316;21.166;2023-02-11T01:56:58;3.20;99.90
25208;DHT22;13153;52.316;21.166;2023-02-11T02:00:12;3.20;99.90
25208;DHT22;13153;52.316;21.166;2023-02-11T02:02:42;3.20;99.90
25208;DHT22;13153;52.316;21.166;2023-02-11T02:05:23;3.20;99.90
25208;DHT22;13153;52.316;21.166;2023-02-11T02:10:41;3.20;99.90
25208;DHT22;13153;52.316;21.166;2023-02-11T02:13:09;3.20;99.90
25208;DHT22;13153;52.316;21.166;2023-02-11T02:15:38;3.20;99.90
25208;DHT22;13153;52.316;21.166;2023-02-11T02:22:51;3.10;99.90
25208;DHT22;13153;52.316;21.166;2023-02-11T02:36:05;3.00;99.90
25208;DHT22;13153;52.316;21.166;2023-02-11T02:41:24;3.00;99.90
25208;DHT22;13153;52.316;21.166;2023-02-11T02:43:54;3.00;99.90
25208;DHT22;13153;52.316;21.166;2023-02-11T02:46:32;3.00;99.90
25208;DHT22;13153;52.316;21.166;2023-02-11T02:48:59;3.00;99.90
25208;DHT22;13153;52.316;21.166;2023-02-11T03:07:58;3.00;99.90
25208;DHT22;13153;52.316;21.166;2023-02-11T03:10:37;3.10;99.90
25208;DHT22;13153;52.316;21.166;2023-02-11T03:13:07;3.00;99.90
25208;DHT22;13153;52.316;21.166;2023-02-11T03:15:38;3.00;99.90
25208;DHT22;13153;52.316;21.166;2023-02-11T03:18:13;3.00;99.90
25208;DHT22;13153;52.316;21.166;2023-02-11T03:20:44;3.10;99.90
25208;DHT22;13153;52.316;21.166;2023-02-11T03:23:29;3.00;99.90
25208;DHT22;13153;52.316;21.166;2023-02-11T03:29:45;3.00;99.90
25208;DHT22;13153;52.316;21.166;2023-02-11T03:32:27;3.00;99.90
25208;DHT22;13153;52.316;21.166;2023-02-11T03:35:23;3.00;99.90
25208;DHT22;13153;52.316;21.166;2023-02-11T03:38:01;3.00;99.90
25208;DHT22;13153;52.316;21.166;2023-02-11T03:40:35;3.00;99.90
25208;DHT22;13153;52.316;21.166;2023-02-11T03:43:16;3.00;99.90
25208;DHT22;13153;52.316;21.166;2023-02-11T03:45:48;3.00;99.90
25208;DHT22;13153;52.316;21.166;2023-02-11T03:48:35;3.00;99.90
25208;DHT22;13153;52.316;21.166;2023-02-11T03:51:07;3.00;99.90
25208;DHT22;13153;52.316;21.166;2023-02-11T03:53:36;3.00;99.90
25208;DHT22;13153;52.316;21.166;2023-02-11T03:56:07;3.00;99.90
25208;DHT22;13153;52.316;21.166;2023-02-11T03:58:37;3.00;99.90
25208;DHT22;13153;52.316;21.166;2023-02-11T04:01:05;3.00;99.90
25208;DHT22;13153;52.316;21.166;2023-02-11T04:03:34;3.10;99.90
25208;DHT22;13153;52.316;21.166;2023-02-11T04:06:00;3.00;99.90
25208;DHT22;13153;52.316;21.166;2023-02-11T04:08:26;3.00;99.90
25208;DHT22;13153;52.316;21.166;2023-02-11T04:10:52;3.00;99.90
25208;DHT22;13153;52.316;21.166;2023-02-11T04:13:18;3.00;99.90
25208;DHT22;13153;52.316;21.166;2023-02-11T04:15:44;3.00;99.90
25208;DHT22;13153;52.316;21.166;2023-02-11T04:18:09;3.00;99.90
25208;DHT22;13153;52.316;21.166;2023-02-11T04:20:35;3.00;99.90
25208;DHT22;13153;52.316;21.166;2023-02-11T04:23:01;3.00;99.90
25208;DHT22;13153;52.316;21.166;2023-02-11T04:25:27;3.00;99.90
25208;DHT22;13153;52.316;21.166;2023-02-11T04:27:53;3.00;99.90
25208;DHT22;13153;52.316;21.166;2023-02-11T04:30:19;3.00;99.90
25208;DHT22;13153;52.316;21.166;2023-02-11T04:32:45;3.00;99.90
25208;DHT22;13153;52.316;21.166;2023-02-11T04:35:11;3.00;99.90
25208;DHT22;13153;52.316;21.166;2023-02-11T04:37:37;3.00;99.90
25208;DHT22;13153;52.316;21.166;2023-02-11T04:40:03;3.00;99.90
25208;DHT22;13153;52.316;21.166;2023-02-11T04:42:29;3.00;99.90
25208;DHT22;13153;52.316;21.166;2023-02-11T04:44:55;3.00;99.90
25208;DHT22;13153;52.316;21.166;2023-02-11T04:47:20;3.00;99.90
25208;DHT22;13153;52.316;21.166;2023-02-11T04:49:46;2.90;99.90
25208;DHT22;13153;52.316;21.166;2023-02-11T04:52:12;2.90;99.90
25208;DHT22;13153;52.316;21.166;2023-02-11T04:54:38;2.80;99.90
25208;DHT22;13153;52.316;21.166;2023-02-11T04:57:04;2.90;99.90
25208;DHT22;13153;52.316;21.166;2023-02-11T04:59:29;2.90;99.90
25208;DHT22;13153;52.316;21.166;2023-02-11T05:01:55;2.80;99.90
25208;DHT22;13153;52.316;21.166;2023-02-11T05:04:21;2.90;99.90
25208;DHT22;13153;52.316;21.166;2023-02-11T05:06:47;2.80;99.90
25208;DHT22;13153;52.316;21.166;2023-02-11T05:09:14;2.80;99.90
25208;DHT22;13153;52.316;21.166;2023-02-11T05:11:40;2.80;99.90
25208;DHT22;13153;52.316;21.166;2023-02-11T05:14:06;2.80;99.90
25208;DHT22;13153;52.316;21.166;2023-02-11T05:16:32;2.90;99.90
25208;DHT22;13153;52.316;21.166;2023-02-11T05:18:58;2.80;99.90
25208;DHT22;13153;52.316;21.166;2023-02-11T05:21:24;2.90;99.90
25208;DHT22;13153;52.316;21.166;2023-02-11T05:23:50;2.90;99.90
25208;DHT22;13153;52.316;21.166;2023-02-11T05:26:16;2.90;99.90
25208;DHT22;13153;52.316;21.166;2023-02-11T05:28:43;2.90;99.90
25208;DHT22;13153;52.316;21.166;2023-02-11T05:31:10;2.90;99.90
25208;DHT22;13153;52.316;21.166;2023-02-11T05:33:36;2.90;99.90
25208;DHT22;13153;52.316;21.166;2023-02-11T05:36:05;2.90;99.90
25208;DHT22;13153;52.316;21.166;2023-02-11T05:38:33;2.90;99.90
25208;DHT22;13153;52.316;21.166;2023-02-11T05:41:00;2.90;99.90
25208;DHT22;13153;52.316;21.166;2023-02-11T05:43:26;2.90;99.90
25208;DHT22;13153;52.316;21.166;2023-02-11T05:45:53;2.90;99.90
25208;DHT22;13153;52.316;21.166;2023-02-11T05:48:18;3.00;99.90
25208;DHT22;13153;52.316;21.166;2023-02-11T05:50:44;3.00;99.90
25208;DHT22;13153;52.316;21.166;2023-02-11T05:53:10;3.00;99.90
25208;DHT22;13153;52.316;21.166;2023-02-11T05:55:37;3.00;99.90
25208;DHT22;13153;52.316;21.166;2023-02-11T05:58:04;3.00;99.90
25208;DHT22;13153;52.316;21.166;2023-02-11T06:00:30;3.00;99.90
25208;DHT22;13153;52.316;21.166;2023-02-11T06:02:56;3.00;99.90
25208;DHT22;13153;52.316;21.166;2023-02-11T06:05:22;3.00;99.90
25208;DHT22;13153;52.316;21.166;2023-02-11T06:07:48;3.00;99.90
25208;DHT22;13153;52.316;21.166;2023-02-11T06:10:13;3.00;99.90
25208;DHT22;13153;52.316;21.166;2023-02-11T06:12:39;3.00;99.90
25208;DHT22;13153;52.316;21.166;2023-02-11T06:15:06;3.00;99.90
25208;DHT22;13153;52.316;21.166;2023-02-11T06:17:32;3.00;99.90
25208;DHT22;13153;52.316;21.166;2023-02-11T06:19:59;3.00;99.90
25208;DHT22;13153;52.316;21.166;2023-02-11T06:22:27;3.00;99.90
25208;DHT22;13153;52.316;21.166;2023-02-11T06:24:53;3.00;99.90
25208;DHT22;13153;52.316;21.166;2023-02-11T06:27:19;3.00;99.90
25208;DHT22;13153;52.316;21.166;2023-02-11T06:29:45;3.00;99.90
25208;DHT22;13153;52.316;21.166;2023-02-11T06:32:12;3.00;99.90
25208;DHT22;13153;52.316;21.166;2023-02-11T06:34:38;3.00;99.90
25208;DHT22;13153;52.316;21.166;2023-02-11T06:37:04;3.00;99.90
25208;DHT22;13153;52.316;21.166;2023-02-11T06:39:31;3.00;99.90
25208;DHT22;13153;52.316;21.166;2023-02-11T06:41:57;3.00;99.90
25208;DHT22;13153;52.316;21.166;2023-02-11T06:44:23;3.10;99.90
25208;DHT22;13153;52.316;21.166;2023-02-11T06:46:48;3.10;99.90
25208;DHT22;13153;52.316;21.166;2023-02-11T06:49:14;3.10;99.90
25208;DHT22;13153;52.316;21.166;2023-02-11T06:51:40;3.10;99.90
25208;DHT22;13153;52.316;21.166;2023-02-11T06:54:06;3.10;99.90
25208;DHT22;13153;52.316;21.166;2023-02-11T06:56:33;3.10;99.90
25208;DHT22;13153;52.316;21.166;2023-02-11T06:58:59;3.10;99.90
25208;DHT22;13153;52.316;21.166;2023-02-11T07:01:26;3.20;99.90
25208;DHT22;13153;52.316;21.166;2023-02-11T07:03:53;3.20;99.90
25208;DHT22;13153;52.316;21.166;2023-02-11T07:06:21;3.20;99.90
25208;DHT22;13153;52.316;21.166;2023-02-11T07:08:50;3.20;99.90
25208;DHT22;13153;52.316;21.166;2023-02-11T07:11:21;3.20;99.90
25208;DHT22;13153;52.316;21.166;2023-02-11T07:13:54;3.20;99.90
25208;DHT22;13153;52.316;21.166;2023-02-11T07:16:24;3.20;99.90
25208;DHT22;13153;52.316;21.166;2023-02-11T07:18:50;3.20;99.90
25208;DHT22;13153;52.316;21.166;2023-02-11T07:21:18;3.20;99.90
25208;DHT22;13153;52.316;21.166;2023-02-11T07:23:46;3.20;99.90
25208;DHT22;13153;52.316;21.166;2023-02-11T07:26:15;3.20;99.90
25208;DHT22;13153;52.316;21.166;2023-02-11T07:28:43;3.20;99.90
25208;DHT22;13153;52.316;21.166;2023-02-11T07:31:16;3.20;99.90
25208;DHT22;13153;52.316;21.166;2023-02-11T07:33:46;3.20;99.90
25208;DHT22;13153;52.316;21.166;2023-02-11T07:36:14;3.10;99.90
25208;DHT22;13153;52.316;21.166;2023-02-11T07:38:41;3.10;99.90
25208;DHT22;13153;52.316;21.166;2023-02-11T07:41:13;3.10;99.90
25208;DHT22;13153;52.316;21.166;2023-02-11T07:43:40;3.10;99.90
25208;DHT22;13153;52.316;21.166;2023-02-11T07:46:10;3.10;99.90
25208;DHT22;13153;52.316;21.166;2023-02-11T07:49:07;3.10;99.90
25208;DHT22;13153;52.316;21.166;2023-02-11T07:51:33;3.00;99.90
25208;DHT22;13153;52.316;21.166;2023-02-11T07:54:00;3.00;99.90
25208;DHT22;13153;52.316;21.166;2023-02-11T07:56:28;3.00;99.90
25208;DHT22;13153;52.316;21.166;2023-02-11T07:58:58;3.10;99.90
25208;DHT22;13153;52.316;21.166;2023-02-11T08:01:25;3.00;99.90
25208;DHT22;13153;52.316;21.166;2023-02-11T08:03:56;3.00;99.90
25208;DHT22;13153;52.316;21.166;2023-02-11T08:06:27;3.10;99.90
25208;DHT22;13153;52.316;21.166;2023-02-11T08:08:55;3.00;99.90
25208;DHT22;13153;52.316;21.166;2023-02-11T08:11:25;3.00;99.90
25208;DHT22;13153;52.316;21.166;2023-02-11T08:13:54;3.00;99.90
25208;DHT22;13153;52.316;21.166;2023-02-11T08:18:50;3.00;99.90
25208;DHT22;13153;52.316;21.166;2023-02-11T08:21:18;3.00;99.90
25208;DHT22;13153;52.316;21.166;2023-02-11T08:23:45;3.00;99.90
25208;DHT22;13153;52.316;21.166;2023-02-11T08:26:16;2.90;99.90
25208;DHT22;13153;52.316;21.166;2023-02-11T08:28:45;3.00;99.90
25208;DHT22;13153;52.316;21.166;2023-02-11T08:31:19;3.00;99.90
25208;DHT22;13153;52.316;21.166;2023-02-11T08:33:47;3.00;99.90
25208;DHT22;13153;52.316;21.166;2023-02-11T08:36:22;3.00;99.90
25208;DHT22;13153;52.316;21.166;2023-02-11T08:38:50;3.00;99.90
25208;DHT22;13153;52.316;21.166;2023-02-11T08:41:16;3.00;99.90
25208;DHT22;13153;52.316;21.166;2023-02-11T08:43:43;2.90;99.90
25208;DHT22;13153;52.316;21.166;2023-02-11T08:46:14;3.00;99.90
25208;DHT22;13153;52.316;21.166;2023-02-11T08:48:42;3.00;99.90
25208;DHT22;13153;52.316;21.166;2023-02-11T08:51:13;3.00;99.90
25208;DHT22;13153;52.316;21.166;2023-02-11T08:53:45;3.00;99.90
25208;DHT22;13153;52.316;21.166;2023-02-11T08:56:13;3.00;99.90
25208;DHT22;13153;52.316;21.166;2023-02-11T08:58:40;3.00;99.90
25208;DHT22;13153;52.316;21.166;2023-02-11T09:01:14;3.20;99.90
25208;DHT22;13153;52.316;21.166;2023-02-11T09:03:42;3.10;99.90
25208;DHT22;13153;52.316;21.166;2023-02-11T09:06:10;3.10;99.90
25208;DHT22;13153;52.316;21.166;2023-02-11T09:08:40;3.10;99.90
25208;DHT22;13153;52.316;21.166;2023-02-11T09:11:09;3.10;99.90
25208;DHT22;13153;52.316;21.166;2023-02-11T09:13:35;3.10;99.90
25208;DHT22;13153;52.316;21.166;2023-02-11T09:16:03;3.20;99.90
25208;DHT22;13153;52.316;21.166;2023-02-11T09:18:30;3.20;99.90
25208;DHT22;13153;52.316;21.166;2023-02-11T09:21:04;3.10;99.90
25208;DHT22;13153;52.316;21.166;2023-02-11T09:23:33;3.10;99.90
25208;DHT22;13153;52.316;21.166;2023-02-11T09:26:05;3.10;99.90
25208;DHT22;13153;52.316;21.166;2023-02-11T09:28:32;3.10;99.90
25208;DHT22;13153;52.316;21.166;2023-02-11T09:30:58;3.10;99.90
25208;DHT22;13153;52.316;21.166;2023-02-11T09:33:23;3.10;99.90
25208;DHT22;13153;52.316;21.166;2023-02-11T09:35:49;3.10;99.90
25208;DHT22;13153;52.316;21.166;2023-02-11T09:38:15;3.10;99.90
25208;DHT22;13153;52.316;21.166;2023-02-11T09:40:42;3.00;99.90
25208;DHT22;13153;52.316;21.166;2023-02-11T09:43:21;3.10;99.90
25208;DHT22;13153;52.316;21.166;2023-02-11T09:45:49;3.20;99.90
25208;DHT22;13153;52.316;21.166;2023-02-11T09:48:19;3.20;99.90
25208;DHT22;13153;52.316;21.166;2023-02-11T09:50:50;3.10;99.90
25208;DHT22;13153;52.316;21.166;2023-02-11T09:53:26;3.00;99.90
25208;DHT22;13153;52.316;21.166;2023-02-11T09:55:59;3.10;99.90
25208;DHT22;13153;52.316;21.166;2023-02-11T09:58:34;3.10;99.90
25208;DHT22;13153;52.316;21.166;2023-02-11T10:06:52;3.10;99.90
25208;DHT22;13153;52.316;21.166;2023-02-11T10:18:16;3.20;99.90
25208;DHT22;13153;52.316;21.166;2023-02-11T10:23:53;3.20;99.90
25208;DHT22;13153;52.316;21.166;2023-02-11T10:26:22;3.20;99.90
25208;DHT22;13153;52.316;21.166;2023-02-11T10:28:51;3.20;99.90
25208;DHT22;13153;52.316;21.166;2023-02-11T10:31:25;3.20;99.90
25208;DHT22;13153;52.316;21.166;2023-02-11T10:34:10;3.20;99.90
25208;DHT22;13153;52.316;21.166;2023-02-11T10:36:41;3.10;99.90
25208;DHT22;13153;52.316;21.166;2023-02-11T10:39:18;3.20;99.90
25208;DHT22;13153;52.316;21.166;2023-02-11T10:41:47;3.20;99.90
25208;DHT22;13153;52.316;21.166;2023-02-11T10:44:41;3.20;99.90
25208;DHT22;13153;52.316;21.166;2023-02-11T10:47:22;3.20;99.90
25208;DHT22;13153;52.316;21.166;2023-02-11T10:49:50;3.20;99.90
25208;DHT22;13153;52.316;21.166;2023-02-11T10:57:34;3.20;99.90
25208;DHT22;13153;52.316;21.166;2023-02-11T11:02:54;3.20;99.90
25208;DHT22;13153;52.316;21.166;2023-02-11T11:05:31;3.20;99.90
25208;DHT22;13153;52.316;21.166;2023-02-11T11:08:05;3.10;99.90
25208;DHT22;13153;52.316;21.166;2023-02-11T11:10:46;3.20;99.90
25208;DHT22;13153;52.316;21.166;2023-02-11T11:13:41;3.20;99.90
25208;DHT22;13153;52.316;21.166;2023-02-11T11:16:30;3.10;99.90
25208;DHT22;13153;52.316;21.166;2023-02-11T11:21:49;3.20;99.90
25208;DHT22;13153;52.316;21.166;2023-02-11T11:24:27;3.20;99.90
25208;DHT22;13153;52.316;21.166;2023-02-11T11:26:58;3.20;99.90
25208;DHT22;13153;52.316;21.166;2023-02-11T11:29:46;3.10;99.90
25208;DHT22;13153;52.316;21.166;2023-02-11T11:32:27;3.20;99.90
25208;DHT22;13153;52.316;21.166;2023-02-11T11:35:03;3.20;99.90
25208;DHT22;13153;52.316;21.166;2023-02-11T11:37:37;3.30;99.90
25208;DHT22;13153;52.316;21.166;2023-02-11T11:40:19;3.20;99.90
25208;DHT22;13153;52.316;21.166;2023-02-11T11:45:27;3.30;99.90
25208;DHT22;13153;52.316;21.166;2023-02-11T11:50:39;3.30;99.90
25208;DHT22;13153;52.316;21.166;2023-02-11T11:59:01;3.40;99.90
25208;DHT22;13153;52.316;21.166;2023-02-11T12:02:10;3.40;99.90
25208;DHT22;13153;52.316;21.166;2023-02-11T12:05:25;3.40;99.90
25208;DHT22;13153;52.316;21.166;2023-02-11T12:08:23;3.40;99.90
25208;DHT22;13153;52.316;21.166;2023-02-11T12:26:15;3.50;99.90
25208;DHT22;13153;52.316;21.166;2023-02-11T12:31:55;3.40;99.90
25208;DHT22;13153;52.316;21.166;2023-02-11T12:40:45;3.50;99.90
25208;DHT22;13153;52.316;21.166;2023-02-11T12:43:20;3.50;99.90
25208;DHT22;13153;52.316;21.166;2023-02-11T12:54:28;3.70;99.90
25208;DHT22;13153;52.316;21.166;2023-02-11T12:57:05;3.70;99.90
25208;DHT22;13153;52.316;21.166;2023-02-11T13:05:41;3.80;99.90
25208;DHT22;13153;52.316;21.166;2023-02-11T13:11:28;3.80;99.90
25208;DHT22;13153;52.316;21.166;2023-02-11T13:14:11;3.80;99.90
25208;DHT22;13153;52.316;21.166;2023-02-11T13:16:43;3.80;99.90
25208;DHT22;13153;52.316;21.166;2023-02-11T13:19:47;3.80;99.90
25208;DHT22;13153;52.316;21.166;2023-02-11T13:22:27;3.90;99.90
25208;DHT22;13153;52.316;21.166;2023-02-11T13:33:04;4.00;99.90
25208;DHT22;13153;52.316;21.166;2023-02-11T13:38:25;3.90;99.90
25208;DHT22;13153;52.316;21.166;2023-02-11T13:43:33;3.90;99.90
25208;DHT22;13153;52.316;21.166;2023-02-11T13:46:11;4.00;99.90
25208;DHT22;13153;52.316;21.166;2023-02-11T13:48:46;4.00;99.90
25208;DHT22;13153;52.316;21.166;2023-02-11T13:51:16;4.00;99.90
25208;DHT22;13153;52.316;21.166;2023-02-11T13:53:58;4.00;99.90
25208;DHT22;13153;52.316;21.166;2023-02-11T13:56:31;4.00;99.90
25208;DHT22;13153;52.316;21.166;2023-02-11T13:59:03;4.00;99.90
25208;DHT22;13153;52.316;21.166;2023-02-11T14:01:43;4.10;99.90
25208;DHT22;13153;52.316;21.166;2023-02-11T14:05:18;4.10;99.90
25208;DHT22;13153;52.316;21.166;2023-02-11T14:10:55;4.00;99.90
25208;DHT22;13153;52.316;21.166;2023-02-11T14:13:26;4.00;99.90
25208;DHT22;13153;52.316;21.166;2023-02-11T14:21:20;4.10;99.90
25208;DHT22;13153;52.316;21.166;2023-02-11T14:41:23;4.10;99.90
25208;DHT22;13153;52.316;21.166;2023-02-11T14:43:59;4.10;99.90
25208;DHT22;13153;52.316;21.166;2023-02-11T14:46:29;4.10;99.90
25208;DHT22;13153;52.316;21.166;2023-02-11T14:49:00;4.10;99.90
25208;DHT22;13153;52.316;21.166;2023-02-11T14:51:33;4.20;99.90
25208;DHT22;13153;52.316;21.166;2023-02-11T14:54:16;4.20;99.90
25208;DHT22;13153;52.316;21.166;2023-02-11T14:57:04;4.20;99.90
25208;DHT22;13153;52.316;21.166;2023-02-11T15:00:18;4.20;99.90
25208;DHT22;13153;52.316;21.166;2023-02-11T15:02:46;4.20;99.90
25208;DHT22;13153;52.316;21.166;2023-02-11T15:05:18;4.20;99.90
25208;DHT22;13153;52.316;21.166;2023-02-11T15:07:50;4.20;99.90
25208;DHT22;13153;52.316;21.166;2023-02-11T15:10:30;4.20;99.90
25208;DHT22;13153;52.316;21.166;2023-02-11T15:13:00;4.30;99.90
25208;DHT22;13153;52.316;21.166;2023-02-11T15:15:28;4.30;99.90
25208;DHT22;13153;52.316;21.166;2023-02-11T15:17:59;4.30;99.90
25208;DHT22;13153;52.316;21.166;2023-02-11T15:20:29;4.30;99.90
25208;DHT22;13153;52.316;21.166;2023-02-11T15:23:00;4.30;99.90
25208;DHT22;13153;52.316;21.166;2023-02-11T15:25:30;4.30;99.90
25208;DHT22;13153;52.316;21.166;2023-02-11T15:27:57;4.30;99.90
25208;DHT22;13153;52.316;21.166;2023-02-11T15:30:24;4.30;99.90
25208;DHT22;13153;52.316;21.166;2023-02-11T15:32:56;4.30;99.90
25208;DHT22;13153;52.316;21.166;2023-02-11T15:35:38;4.30;99.90
25208;DHT22;13153;52.316;21.166;2023-02-11T15:38:06;4.30;99.90
25208;DHT22;13153;52.316;21.166;2023-02-11T15:40:34;4.30;99.90
25208;DHT22;13153;52.316;21.166;2023-02-11T15:43:04;4.30;99.90
25208;DHT22;13153;52.316;21.166;2023-02-11T15:45:43;4.30;99.90
25208;DHT22;13153;52.316;21.166;2023-02-11T15:48:18;4.30;99.90
25208;DHT22;13153;52.316;21.166;2023-02-11T15:50:51;4.30;99.90
25208;DHT22;13153;52.316;21.166;2023-02-11T15:56:16;4.40;99.90
25208;DHT22;13153;52.316;21.166;2023-02-11T15:58:53;4.40;99.90
25208;DHT22;13153;52.316;21.166;2023-02-11T16:01:32;4.40;99.90
25208;DHT22;13153;52.316;21.166;2023-02-11T16:04:02;4.40;99.90
25208;DHT22;13153;52.316;21.166;2023-02-11T16:06:38;4.40;99.90
25208;DHT22;13153;52.316;21.166;2023-02-11T16:09:33;4.40;99.90
25208;DHT22;13153;52.316;21.166;2023-02-11T16:12:02;4.40;99.90
25208;DHT22;13153;52.316;21.166;2023-02-11T16:14:46;4.40;99.90
25208;DHT22;13153;52.316;21.166;2023-02-11T16:17:27;4.50;99.90
25208;DHT22;13153;52.316;21.166;2023-02-11T16:19:54;4.50;99.90
25208;DHT22;13153;52.316;21.166;2023-02-11T16:22:25;4.50;99.90
25208;DHT22;13153;52.316;21.166;2023-02-11T16:24:56;4.50;99.90
25208;DHT22;13153;52.316;21.166;2023-02-11T16:29:56;4.50;99.90
25208;DHT22;13153;52.316;21.166;2023-02-11T16:32:29;4.60;99.90
25208;DHT22;13153;52.316;21.166;2023-02-11T16:34:57;4.50;99.90
25208;DHT22;13153;52.316;21.166;2023-02-11T16:37:25;4.60;99.90
25208;DHT22;13153;52.316;21.166;2023-02-11T16:39:55;4.60;99.90
25208;DHT22;13153;52.316;21.166;2023-02-11T16:42:23;4.60;99.90
25208;DHT22;13153;52.316;21.166;2023-02-11T16:44:49;4.60;99.90
25208;DHT22;13153;52.316;21.166;2023-02-11T16:47:26;4.60;99.90
25208;DHT22;13153;52.316;21.166;2023-02-11T16:49:53;4.70;99.90
25208;DHT22;13153;52.316;21.166;2023-02-11T16:52:21;4.70;99.90
25208;DHT22;13153;52.316;21.166;2023-02-11T16:54:48;4.70;99.90
25208;DHT22;13153;52.316;21.166;2023-02-11T16:57:19;4.70;99.90
25208;DHT22;13153;52.316;21.166;2023-02-11T16:59:47;4.70;99.90
25208;DHT22;13153;52.316;21.166;2023-02-11T17:02:23;4.80;99.90
25208;DHT22;13153;52.316;21.166;2023-02-11T17:04:51;4.80;99.90
25208;DHT22;13153;52.316;21.166;2023-02-11T17:07:21;4.80;99.90
25208;DHT22;13153;52.316;21.166;2023-02-11T17:09:47;4.80;99.90
25208;DHT22;13153;52.316;21.166;2023-02-11T17:12:12;4.90;99.90
25208;DHT22;13153;52.316;21.166;2023-02-11T17:14:38;4.80;99.90
25208;DHT22;13153;52.316;21.166;2023-02-11T17:17:04;4.90;99.90
25208;DHT22;13153;52.316;21.166;2023-02-11T17:19:30;4.80;99.90
25208;DHT22;13153;52.316;21.166;2023-02-11T17:21:56;4.90;99.90
25208;DHT22;13153;52.316;21.166;2023-02-11T17:24:22;4.90;99.90
25208;DHT22;13153;52.316;21.166;2023-02-11T17:26:48;4.90;99.90
25208;DHT22;13153;52.316;21.166;2023-02-11T17:29:24;4.90;99.90
25208;DHT22;13153;52.316;21.166;2023-02-11T17:31:51;4.80;99.90
25208;DHT22;13153;52.316;21.166;2023-02-11T17:34:18;4.90;99.90
25208;DHT22;13153;52.316;21.166;2023-02-11T17:36:45;4.90;99.90
25208;DHT22;13153;52.316;21.166;2023-02-11T17:39:11;4.90;99.90
25208;DHT22;13153;52.316;21.166;2023-02-11T17:41:38;4.90;99.90
25208;DHT22;13153;52.316;21.166;2023-02-11T17:44:05;4.90;99.90
25208;DHT22;13153;52.316;21.166;2023-02-11T17:46:33;4.90;99.90
25208;DHT22;13153;52.316;21.166;2023-02-11T17:49:00;4.90;99.90
25208;DHT22;13153;52.316;21.166;2023-02-11T17:51:31;5.00;99.90
25208;DHT22;13153;52.316;21.166;2023-02-11T17:54:02;5.00;99.90
25208;DHT22;13153;52.316;21.166;2023-02-11T17:56:32;4.90;99.90
25208;DHT22;13153;52.316;21.166;2023-02-11T17:58:59;5.00;99.90
25208;DHT22;13153;52.316;21.166;2023-02-11T18:01:27;5.00;99.90
25208;DHT22;13153;52.316;21.166;2023-02-11T18:03:54;5.00;99.90
25208;DHT22;13153;52.316;21.166;2023-02-11T18:06:20;5.00;99.90
25208;DHT22;13153;52.316;21.166;2023-02-11T18:08:47;5.00;99.90
25208;DHT22;13153;52.316;21.166;2023-02-11T18:11:13;5.10;99.90
25208;DHT22;13153;52.316;21.166;2023-02-11T18:13:41;5.00;99.90
25208;DHT22;13153;52.316;21.166;2023-02-11T18:16:08;5.00;99.90
25208;DHT22;13153;52.316;21.166;2023-02-11T18:18:42;5.10;99.90
25208;DHT22;13153;52.316;21.166;2023-02-11T18:21:13;5.00;99.90
25208;DHT22;13153;52.316;21.166;2023-02-11T18:23:40;5.10;99.90
25208;DHT22;13153;52.316;21.166;2023-02-11T18:26:06;5.00;99.90
25208;DHT22;13153;52.316;21.166;2023-02-11T18:28:33;5.10;99.90
25208;DHT22;13153;52.316;21.166;2023-02-11T18:31:00;5.10;99.90
25208;DHT22;13153;52.316;21.166;2023-02-11T18:33:27;5.10;99.90
25208;DHT22;13153;52.316;21.166;2023-02-11T18:35:54;5.10;99.90
25208;DHT22;13153;52.316;21.166;2023-02-11T18:38:20;5.10;99.90
25208;DHT22;13153;52.316;21.166;2023-02-11T18:40:47;5.10;99.90
25208;DHT22;13153;52.316;21.166;2023-02-11T18:43:19;5.10;99.90
25208;DHT22;13153;52.316;21.166;2023-02-11T18:45:46;5.10;99.90